sensor_id;sensor_type;location;lat;lon;timestamp;pressure;altitude;pressure_sealevel;temperature;humidity
55301;BME280;58302;51.446;-2.000;2023-07-24T00:01:09;96058.66;;;14.40;100.00
55301;BME280;58302;51.446;-2.000;2023-07-24T00:03:35;96057.84;;;14.39;100.00
55301;BME280;58302;51.446;-2.000;2023-07-24T00:06:01;96050.84;;;14.38;100.00
55301;BME280;58302;51.446;-2.000;2023-07-24T00:08:27;96043.06;;;14.37;100.00
55301;BME280;58302;51.446;-2.000;2023-07-24T00:10:52;96042.66;;;14.38;100.00
55301;BME280;58302;51.446;-2.000;2023-07-24T00:13:18;96044.19;;;14.39;100.00
55301;BME280;58302;51.446;-2.000;2023-07-24T00:15:44;96031.34;;;14.40;100.00
55301;BME280;58302;51.446;-2.000;2023-07-24T00:18:10;96021.19;;;14.40;100.00
55301;BME280;58302;51.446;-2.000;2023-07-24T00:20:36;96014.97;;;14.40;100.00
55301;BME280;58302;51.446;-2.000;2023-07-24T00:23:01;96003.22;;;14.39;100.00
55301;BME280;58302;51.446;-2.000;2023-07-24T00:25:27;96003.63;;;14.38;100.00
55301;BME280;58302;51.446;-2.000;2023-07-24T00:27:53;95992.72;;;14.38;100.00
55301;BME280;58302;51.446;-2.000;2023-07-24T00:30:18;95987.25;;;14.38;100.00
55301;BME280;58302;51.446;-2.000;2023-07-24T00:32:44;95975.91;;;14.39;100.00
55301;BME280;58302;51.446;-2.000;2023-07-24T00:35:10;95968.91;;;14.38;100.00
55301;BME280;58302;51.446;-2.000;2023-07-24T00:37:36;95957.97;;;14.38;100.00
55301;BME280;58302;51.446;-2.000;2023-07-24T00:40:02;95953.69;;;14.37;100.00
55301;BME280;58302;51.446;-2.000;2023-07-24T00:42:28;95937.31;;;14.37;100.00
55301;BME280;58302;51.446;-2.000;2023-07-24T00:44:54;95934.22;;;14.35;100.00
55301;BME280;58302;51.446;-2.000;2023-07-24T00:47:19;95924.47;;;14.34;100.00
55301;BME280;58302;51.446;-2.000;2023-07-24T00:49:45;95920.94;;;14.34;100.00
55301;BME280;58302;51.446;-2.000;2023-07-24T00:52:12;95917.44;;;14.33;100.00
55301;BME280;58302;51.446;-2.000;2023-07-24T00:54:37;95916.66;;;14.33;100.00
55301;BME280;58302;51.446;-2.000;2023-07-24T00:57:03;95898.72;;;14.32;100.00
55301;BME280;58302;51.446;-2.000;2023-07-24T00:59:30;95894.81;;;14.33;100.00
55301;BME280;58302;51.446;-2.000;2023-07-24T01:01:57;95883.13;;;14.32;100.00
55301;BME280;58302;51.446;-2.000;2023-07-24T01:04:22;95850.34;;;14.32;100.00
55301;BME280;58302;51.446;-2.000;2023-07-24T01:06:48;95845.66;;;14.33;100.00
55301;BME280;58302;51.446;-2.000;2023-07-24T01:09:14;95848.03;;;14.31;100.00
55301;BME280;58302;51.446;-2.000;2023-07-24T01:11:44;95828.50;;;14.32;100.00
55301;BME280;58302;51.446;-2.000;2023-07-24T01:14:13;95808.59;;;14.32;100.00
55301;BME280;58302;51.446;-2.000;2023-07-24T01:16:43;95800.41;;;14.35;100.00
55301;BME280;58302;51.446;-2.000;2023-07-24T01:19:12;95782.84;;;14.33;100.00
55301;BME280;58302;51.446;-2.000;2023-07-24T01:24:30;95747.41;;;14.29;100.00
55301;BME280;58302;51.446;-2.000;2023-07-24T01:26:58;95736.47;;;14.29;100.00
55301;BME280;58302;51.446;-2.000;2023-07-24T01:29:24;95720.09;;;14.29;100.00
55301;BME280;58302;51.446;-2.000;2023-07-24T01:31:51;95704.47;;;14.30;100.00
55301;BME280;58302;51.446;-2.000;2023-07-24T01:34:27;95680.28;;;14.28;100.00
55301;BME280;58302;51.446;-2.000;2023-07-24T01:36:57;95665.47;;;14.29;100.00
55301;BME280;58302;51.446;-2.000;2023-07-24T01:39:23;95643.25;;;14.27;100.00
55301;BME280;58302;51.446;-2.000;2023-07-24T01:41:52;95629.59;;;14.27;100.00
55301;BME280;58302;51.446;-2.000;2023-07-24T01:44:20;95611.69;;;14.26;100.00
55301;BME280;58302;51.446;-2.000;2023-07-24T01:46:56;95596.47;;;14.25;100.00
55301;BME280;58302;51.446;-2.000;2023-07-24T01:49:22;95558.25;;;14.25;100.00
55301;BME280;58302;51.446;-2.000;2023-07-24T01:51:53;95536.84;;;14.23;100.00
55301;BME280;58302;51.446;-2.000;2023-07-24T01:54:19;95521.59;;;14.22;100.00
55301;BME280;58302;51.446;-2.000;2023-07-24T01:56:50;95482.25;;;14.20;100.00
55301;BME280;58302;51.446;-2.000;2023-07-24T01:59:20;95462.81;;;14.18;100.00
55301;BME280;58302;51.446;-2.000;2023-07-24T02:01:46;95452.69;;;14.15;100.00
55301;BME280;58302;51.446;-2.000;2023-07-24T02:04:12;95441.00;;;14.14;100.00
55301;BME280;58302;51.446;-2.000;2023-07-24T02:06:38;95427.34;;;14.14;100.00
55301;BME280;58302;51.446;-2.000;2023-07-24T02:09:08;95419.94;;;14.15;100.00
55301;BME280;58302;51.446;-2.000;2023-07-24T02:11:36;95415.25;;;14.15;100.00
55301;BME280;58302;51.446;-2.000;2023-07-24T02:14:03;95410.22;;;14.14;100.00
55301;BME280;58302;51.446;-2.000;2023-07-24T02:16:29;95384.88;;;14.13;100.00
55301;BME280;58302;51.446;-2.000;2023-07-24T02:19:00;95373.94;;;14.13;100.00
55301;BME280;58302;51.446;-2.000;2023-07-24T02:21:26;95361.50;;;14.12;100.00
55301;BME280;58302;51.446;-2.000;2023-07-24T02:23:53;95360.69;;;14.12;100.00
55301;BME280;58302;51.446;-2.000;2023-07-24T02:26:23;95343.19;;;14.09;100.00
55301;BME280;58302;51.446;-2.000;2023-07-24T02:28:51;95335.78;;;14.10;100.00
55301;BME280;58302;51.446;-2.000;2023-07-24T02:31:20;95331.50;;;14.09;100.00
55301;BME280;58302;51.446;-2.000;2023-07-24T02:34:00;95317.88;;;14.09;100.00
55301;BME280;58302;51.446;-2.000;2023-07-24T02:36:28;95318.28;;;14.07;100.00
55301;BME280;58302;51.446;-2.000;2023-07-24T02:39:01;95322.97;;;14.07;100.00
55301;BME280;58302;51.446;-2.000;2023-07-24T02:41:37;95323.78;;;14.04;100.00
55301;BME280;58302;51.446;-2.000;2023-07-24T02:44:10;95310.97;;;14.01;100.00
55301;BME280;58302;51.446;-2.000;2023-07-24T02:46:53;95310.97;;;14.01;100.00
55301;BME280;58302;51.446;-2.000;2023-07-24T02:49:28;95307.88;;;13.98;100.00
55301;BME280;58302;51.446;-2.000;2023-07-24T02:52:13;95322.72;;;13.97;100.00
55301;BME280;58302;51.446;-2.000;2023-07-24T02:54:43;95318.44;;;13.96;100.00
55301;BME280;58302;51.446;-2.000;2023-07-24T02:57:10;95322.75;;;13.94;100.00
55301;BME280;58302;51.446;-2.000;2023-07-24T02:59:41;95325.13;;;13.92;100.00
55301;BME280;58302;51.446;-2.000;2023-07-24T03:05:48;95332.19;;;13.89;100.00
55301;BME280;58302;51.446;-2.000;2023-07-24T03:14:47;95344.69;;;13.87;100.00
55301;BME280;58302;51.446;-2.000;2023-07-24T03:23:34;95347.09;;;13.85;100.00
55301;BME280;58302;51.446;-2.000;2023-07-24T03:26:00;95358.38;;;13.83;100.00
55301;BME280;58302;51.446;-2.000;2023-07-24T03:28:26;95367.75;;;13.82;100.00
55301;BME280;58302;51.446;-2.000;2023-07-24T03:30:52;95366.56;;;13.83;100.00
55301;BME280;58302;51.446;-2.000;2023-07-24T03:33:18;95366.56;;;13.83;100.00
55301;BME280;58302;51.446;-2.000;2023-07-24T03:35:44;95363.50;;;13.81;100.00
55301;BME280;58302;51.446;-2.000;2023-07-24T03:38:09;95365.88;;;13.79;100.00
55301;BME280;58302;51.446;-2.000;2023-07-24T03:40:35;95379.13;;;13.77;100.00
55301;BME280;58302;51.446;-2.000;2023-07-24T03:43:01;95382.69;;;13.74;100.00
55301;BME280;58302;51.446;-2.000;2023-07-24T03:45:26;95384.28;;;13.71;100.00
55301;BME280;58302;51.446;-2.000;2023-07-24T03:47:52;95394.06;;;13.69;100.00
55301;BME280;58302;51.446;-2.000;2023-07-24T03:50:18;95395.25;;;13.68;100.00
55301;BME280;58302;51.446;-2.000;2023-07-24T03:52:43;95401.84;;;13.67;100.00
55301;BME280;58302;51.446;-2.000;2023-07-24T03:55:09;95404.28;;;13.61;100.00
55301;BME280;58302;51.446;-2.000;2023-07-24T03:57:36;95413.28;;;13.58;100.00
55301;BME280;58302;51.446;-2.000;2023-07-24T04:00:02;95414.50;;;13.54;100.00
55301;BME280;58302;51.446;-2.000;2023-07-24T04:02:28;95427.78;;;13.52;100.00
55301;BME280;58302;51.446;-2.000;2023-07-24T04:04:53;95425.09;;;13.48;100.00
55301;BME280;58302;51.446;-2.000;2023-07-24T04:07:19;95436.03;;;13.44;100.00
55301;BME280;58302;51.446;-2.000;2023-07-24T04:09:45;95437.22;;;13.43;100.00
55301;BME280;58302;51.446;-2.000;2023-07-24T04:12:10;95440.28;;;13.45;100.00
55301;BME280;58302;51.446;-2.000;2023-07-24T04:14:36;95436.41;;;13.47;100.00
55301;BME280;58302;51.446;-2.000;2023-07-24T04:17:02;95441.88;;;13.47;100.00
55301;BME280;58302;51.446;-2.000;2023-07-24T04:19:28;95444.94;;;13.49;100.00
55301;BME280;58302;51.446;-2.000;2023-07-24T04:21:53;95441.03;;;13.50;100.00
55301;BME280;58302;51.446;-2.000;2023-07-24T04:24:19;95437.88;;;13.51;100.00
55301;BME280;58302;51.446;-2.000;2023-07-24T04:26:45;95431.66;;;13.51;100.00
55301;BME280;58302;51.446;-2.000;2023-07-24T04:29:10;95430.53;;;13.48;100.00
55301;BME280;58302;51.446;-2.000;2023-07-24T04:31:36;95434.03;;;13.49;100.00
55301;BME280;58302;51.446;-2.000;2023-07-24T04:34:02;95438.38;;;13.46;100.00
55301;BME280;58302;51.446;-2.000;2023-07-24T04:36:28;95432.09;;;13.49;100.00
55301;BME280;58302;51.446;-2.000;2023-07-24T04:38:53;95424.25;;;13.51;100.00
55301;BME280;58302;51.446;-2.000;2023-07-24T04:41:19;95415.28;;;13.54;100.00
55301;BME280;58302;51.446;-2.000;2023-07-24T04:43:45;95411.75;;;13.57;100.00
55301;BME280;58302;51.446;-2.000;2023-07-24T04:46:10;95412.88;;;13.60;100.00
55301;BME280;58302;51.446;-2.000;2023-07-24T04:48:36;95409.72;;;13.61;100.00
55301;BME280;58302;51.446;-2.000;2023-07-24T04:51:02;95399.19;;;13.63;100.00
55301;BME280;58302;51.446;-2.000;2023-07-24T04:53:28;95411.66;;;13.64;100.00
55301;BME280;58302;51.446;-2.000;2023-07-24T04:55:53;95410.88;;;13.64;100.00
55301;BME280;58302;51.446;-2.000;2023-07-24T04:58:19;95399.91;;;13.67;100.00
55301;BME280;58302;51.446;-2.000;2023-07-24T05:00:45;95400.28;;;13.69;100.00
55301;BME280;58302;51.446;-2.000;2023-07-24T05:03:11;95406.47;;;13.74;100.00
55301;BME280;58302;51.446;-2.000;2023-07-24T05:05:37;95400.94;;;13.77;100.00
55301;BME280;58302;51.446;-2.000;2023-07-24T05:08:03;95402.50;;;13.78;100.00
55301;BME280;58302;51.446;-2.000;2023-07-24T05:10:28;95403.22;;;13.82;100.00
55301;BME280;58302;51.446;-2.000;2023-07-24T05:12:54;95402.78;;;13.87;100.00
55301;BME280;58302;51.446;-2.000;2023-07-24T05:15:22;95415.59;;;13.90;100.00
55301;BME280;58302;51.446;-2.000;2023-07-24T05:17:48;95415.53;;;13.94;100.00
55301;BME280;58302;51.446;-2.000;2023-07-24T05:20:13;95417.09;;;13.95;100.00
55301;BME280;58302;51.446;-2.000;2023-07-24T05:22:39;95427.97;;;13.98;100.00
55301;BME280;58302;51.446;-2.000;2023-07-24T05:25:05;95431.00;;;14.04;100.00
55301;BME280;58302;51.446;-2.000;2023-07-24T05:27:31;95427.00;;;14.12;100.00
55301;BME280;58302;51.446;-2.000;2023-07-24T05:29:56;95431.50;;;14.22;100.00
55301;BME280;58302;51.446;-2.000;2023-07-24T05:32:22;95426.38;;;14.28;100.00
55301;BME280;58302;51.446;-2.000;2023-07-24T05:34:48;95425.09;;;14.36;100.00
55301;BME280;58302;51.446;-2.000;2023-07-24T05:37:14;95434.34;;;14.42;100.00
55301;BME280;58302;51.446;-2.000;2023-07-24T05:39:39;95442.47;;;14.49;100.00
55301;BME280;58302;51.446;-2.000;2023-07-24T05:42:05;95447.00;;;14.60;100.00
55301;BME280;58302;51.446;-2.000;2023-07-24T05:44:31;95458.59;;;14.67;100.00
55301;BME280;58302;51.446;-2.000;2023-07-24T05:46:58;95474.44;;;14.76;100.00
55301;BME280;58302;51.446;-2.000;2023-07-24T05:49:24;95498.53;;;14.85;100.00
55301;BME280;58302;51.446;-2.000;2023-07-24T05:51:49;95546.88;;;14.88;100.00
55301;BME280;58302;51.446;-2.000;2023-07-24T05:54:15;95578.88;;;14.91;100.00
55301;BME280;58302;51.446;-2.000;2023-07-24T05:56:41;95635.84;;;14.92;100.00
55301;BME280;58302;51.446;-2.000;2023-07-24T05:59:07;95677.56;;;14.96;100.00
55301;BME280;58302;51.446;-2.000;2023-07-24T06:01:32;95733.03;;;14.97;100.00
55301;BME280;58302;51.446;-2.000;2023-07-24T06:03:58;95787.66;;;15.00;100.00
55301;BME280;58302;51.446;-2.000;2023-07-24T06:06:24;95846.13;;;15.10;100.00
55301;BME280;58302;51.446;-2.000;2023-07-24T06:08:50;95896.84;;;15.15;100.00
55301;BME280;58302;51.446;-2.000;2023-07-24T06:11:16;95949.56;;;15.15;100.00
55301;BME280;58302;51.446;-2.000;2023-07-24T06:13:42;96022.63;;;15.18;100.00
55301;BME280;58302;51.446;-2.000;2023-07-24T06:16:08;96056.91;;;15.30;100.00
55301;BME280;58302;51.446;-2.000;2023-07-24T06:18:34;96096.25;;;15.43;100.00
55301;BME280;58302;51.446;-2.000;2023-07-24T06:21:00;96143.00;;;15.60;100.00
55301;BME280;58302;51.446;-2.000;2023-07-24T06:23:25;96258.31;;;15.72;100.00
55301;BME280;58302;51.446;-2.000;2023-07-24T06:25:51;96307.47;;;15.87;100.00
55301;BME280;58302;51.446;-2.000;2023-07-24T06:28:18;96364.13;;;16.00;100.00
55301;BME280;58302;51.446;-2.000;2023-07-24T06:30:44;96421.94;;;16.13;100.00
55301;BME280;58302;51.446;-2.000;2023-07-24T06:33:09;96332.16;;;16.35;100.00
55301;BME280;58302;51.446;-2.000;2023-07-24T06:35:35;96380.44;;;16.67;100.00
55301;BME280;58302;51.446;-2.000;2023-07-24T06:38:01;96557.78;;;16.84;100.00
55301;BME280;58302;51.446;-2.000;2023-07-24T06:40:27;96660.75;;;16.96;100.00
55301;BME280;58302;51.446;-2.000;2023-07-24T06:42:52;96738.69;;;17.05;100.00
55301;BME280;58302;51.446;-2.000;2023-07-24T06:45:18;96818.63;;;17.11;100.00
55301;BME280;58302;51.446;-2.000;2023-07-24T06:47:44;96875.03;;;17.19;100.00
55301;BME280;58302;51.446;-2.000;2023-07-24T06:50:10;96971.50;;;16.96;100.00
55301;BME280;58302;51.446;-2.000;2023-07-24T06:52:36;96989.50;;;16.86;100.00
55301;BME280;58302;51.446;-2.000;2023-07-24T06:55:01;96991.88;;;16.74;100.00
55301;BME280;58302;51.446;-2.000;2023-07-24T06:57:27;96986.00;;;16.79;100.00
55301;BME280;58302;51.446;-2.000;2023-07-24T06:59:55;97001.59;;;16.64;100.00
55301;BME280;58302;51.446;-2.000;2023-07-24T07:02:21;96976.50;;;16.41;100.00
55301;BME280;58302;51.446;-2.000;2023-07-24T07:04:47;96973.31;;;16.14;100.00
55301;BME280;58302;51.446;-2.000;2023-07-24T07:07:13;96939.56;;;15.81;100.00
55301;BME280;58302;51.446;-2.000;2023-07-24T07:09:48;96887.16;;;15.79;100.00
55301;BME280;58302;51.446;-2.000;2023-07-24T07:12:13;96866.00;;;15.69;100.00
55301;BME280;58302;51.446;-2.000;2023-07-24T07:17:28;96806.97;;;16.03;100.00
55301;BME280;58302;51.446;-2.000;2023-07-24T07:20:02;96824.97;;;15.87;100.00
55301;BME280;58302;51.446;-2.000;2023-07-24T07:22:28;96800.63;;;15.57;100.00
55301;BME280;58302;51.446;-2.000;2023-07-24T07:28:09;96779.50;;;14.52;100.00
55301;BME280;58302;51.446;-2.000;2023-07-24T07:34:00;96665.41;;;14.35;100.00
55301;BME280;58302;51.446;-2.000;2023-07-24T07:42:37;96522.19;;;14.32;100.00
55301;BME280;58302;51.446;-2.000;2023-07-24T07:45:03;96523.34;;;14.24;100.00
55301;BME280;58302;51.446;-2.000;2023-07-24T07:47:29;96518.25;;;14.19;100.00
55301;BME280;58302;51.446;-2.000;2023-07-24T07:49:55;96504.56;;;14.15;100.00
55301;BME280;58302;51.446;-2.000;2023-07-24T07:52:20;96472.97;;;14.14;100.00
55301;BME280;58302;51.446;-2.000;2023-07-24T07:54:47;96461.22;;;14.00;100.00
55301;BME280;58302;51.446;-2.000;2023-07-24T07:57:13;96461.19;;;13.85;100.00
55301;BME280;58302;51.446;-2.000;2023-07-24T07:59:39;96445.59;;;13.82;100.00
55301;BME280;58302;51.446;-2.000;2023-07-24T08:02:04;96446.31;;;13.68;100.00
55301;BME280;58302;51.446;-2.000;2023-07-24T08:04:30;96405.84;;;13.85;100.00
55301;BME280;58302;51.446;-2.000;2023-07-24T08:06:56;96385.56;;;13.89;100.00
55301;BME280;58302;51.446;-2.000;2023-07-24T08:09:22;96372.34;;;14.02;100.00
55301;BME280;58302;51.446;-2.000;2023-07-24T08:18:03;96418.69;;;13.88;100.00
55301;BME280;58302;51.446;-2.000;2023-07-24T08:49:18;96594.81;;;14.40;100.00
55301;BME280;58302;51.446;-2.000;2023-07-24T08:52:00;96586.59;;;14.40;100.00
55301;BME280;58302;51.446;-2.000;2023-07-24T08:54:56;96600.63;;;14.35;100.00
55301;BME280;58302;51.446;-2.000;2023-07-24T08:58:02;96613.38;;;14.10;100.00
55301;BME280;58302;51.446;-2.000;2023-07-24T09:00:33;96615.31;;;14.02;100.00
55301;BME280;58302;51.446;-2.000;2023-07-24T09:03:26;96605.56;;;14.01;100.00
55301;BME280;58302;51.446;-2.000;2023-07-24T09:06:06;96577.06;;;13.98;100.00
55301;BME280;58302;51.446;-2.000;2023-07-24T09:08:47;96562.22;;;14.00;100.00
55301;BME280;58302;51.446;-2.000;2023-07-24T09:11:14;96543.91;;;14.00;100.00
55301;BME280;58302;51.446;-2.000;2023-07-24T09:13:43;96527.50;;;13.93;100.00
55301;BME280;58302;51.446;-2.000;2023-07-24T09:16:20;96528.19;;;13.72;100.00
55301;BME280;58302;51.446;-2.000;2023-07-24T09:18:46;96524.22;;;13.59;100.00
55301;BME280;58302;51.446;-2.000;2023-07-24T09:21:13;96524.19;;;13.55;100.00
55301;BME280;58302;51.446;-2.000;2023-07-24T09:23:39;96505.50;;;13.57;100.00
55301;BME280;58302;51.446;-2.000;2023-07-24T09:26:08;96470.78;;;13.51;100.00
55301;BME280;58302;51.446;-2.000;2023-07-24T09:28:34;96460.28;;;13.56;100.00
55301;BME280;58302;51.446;-2.000;2023-07-24T10:25:28;97068.63;;;15.24;100.00
55301;BME280;58302;51.446;-2.000;2023-07-24T10:52:31;97471.38;;;16.34;100.00
55301;BME280;58302;51.446;-2.000;2023-07-24T10:55:01;97524.09;;;16.58;100.00
55301;BME280;58302;51.446;-2.000;2023-07-24T10:57:28;97617.91;;;16.74;100.00
55301;BME280;58302;51.446;-2.000;2023-07-24T10:59:58;97657.94;;;16.79;100.00
55301;BME280;58302;51.446;-2.000;2023-07-24T11:02:28;97687.03;;;16.87;100.00
55301;BME280;58302;51.446;-2.000;2023-07-24T11:04:58;97727.59;;;16.71;100.00
55301;BME280;58302;51.446;-2.000;2023-07-24T11:07:31;97692.88;;;16.55;100.00
55301;BME280;58302;51.446;-2.000;2023-07-24T11:09:57;97673.56;;;16.45;100.00
55301;BME280;58302;51.446;-2.000;2023-07-24T11:12:22;97656.41;;;16.51;100.00
55301;BME280;58302;51.446;-2.000;2023-07-24T11:14:52;97648.34;;;16.66;100.00
55301;BME280;58302;51.446;-2.000;2023-07-24T11:17:21;97701.75;;;16.72;100.00
55301;BME280;58302;51.446;-2.000;2023-07-24T11:19:47;97759.63;;;16.67;100.00
55301;BME280;58302;51.446;-2.000;2023-07-24T11:30:12;97857.13;;;17.17;100.00
55301;BME280;58302;51.446;-2.000;2023-07-24T11:35:33;97933.63;;;16.92;100.00
55301;BME280;58302;51.446;-2.000;2023-07-24T11:38:01;97913.41;;;16.77;100.00
55301;BME280;58302;51.446;-2.000;2023-07-24T11:40:39;97900.34;;;16.97;100.00
55301;BME280;58302;51.446;-2.000;2023-07-24T11:43:05;97940.00;;;17.26;100.00
55301;BME280;58302;51.446;-2.000;2023-07-24T11:45:39;97978.66;;;17.44;100.00
55301;BME280;58302;51.446;-2.000;2023-07-24T11:48:09;98004.97;;;17.19;100.00
55301;BME280;58302;51.446;-2.000;2023-07-24T11:50:44;97954.06;;;17.25;100.00
55301;BME280;58302;51.446;-2.000;2023-07-24T11:53:18;97969.69;;;17.47;100.00
55301;BME280;58302;51.446;-2.000;2023-07-24T11:55:44;98022.91;;;17.65;100.00
55301;BME280;58302;51.446;-2.000;2023-07-24T11:58:13;98064.75;;;17.82;100.00
55301;BME280;58302;51.446;-2.000;2023-07-24T12:00:41;98094.50;;;17.76;100.00
55301;BME280;58302;51.446;-2.000;2023-07-24T12:03:07;98094.22;;;17.85;100.00
55301;BME280;58302;51.446;-2.000;2023-07-24T12:05:43;98131.56;;;17.86;100.00
55301;BME280;58302;51.446;-2.000;2023-07-24T12:08:09;98149.94;;;18.08;100.00
55301;BME280;58302;51.446;-2.000;2023-07-24T12:10:36;98174.09;;;18.52;100.00
55301;BME280;58302;51.446;-2.000;2023-07-24T12:13:02;98232.25;;;19.14;100.00
55301;BME280;58302;51.446;-2.000;2023-07-24T12:15:28;98316.09;;;19.54;100.00
55301;BME280;58302;51.446;-2.000;2023-07-24T12:17:54;98404.91;;;19.40;100.00
55301;BME280;58302;51.446;-2.000;2023-07-24T12:20:20;98400.22;;;18.88;100.00
55301;BME280;58302;51.446;-2.000;2023-07-24T12:22:46;98360.66;;;18.47;100.00
55301;BME280;58302;51.446;-2.000;2023-07-24T12:25:12;98325.28;;;18.22;100.00
55301;BME280;58302;51.446;-2.000;2023-07-24T12:27:39;98301.63;;;18.14;100.00
55301;BME280;58302;51.446;-2.000;2023-07-24T12:30:06;98288.06;;;18.28;100.00
55301;BME280;58302;51.446;-2.000;2023-07-24T12:32:32;98279.34;;;18.49;100.00
55301;BME280;58302;51.446;-2.000;2023-07-24T12:34:58;98333.84;;;18.93;100.00
55301;BME280;58302;51.446;-2.000;2023-07-24T12:37:24;98382.44;;;19.08;100.00
55301;BME280;58302;51.446;-2.000;2023-07-24T12:39:50;98410.16;;;19.22;100.00
55301;BME280;58302;51.446;-2.000;2023-07-24T12:42:16;98432.63;;;19.25;100.00
55301;BME280;58302;51.446;-2.000;2023-07-24T12:44:42;98452.13;;;18.86;100.00
55301;BME280;58302;51.446;-2.000;2023-07-24T12:47:08;98434.38;;;18.14;100.00
55301;BME280;58302;51.446;-2.000;2023-07-24T12:49:34;98380.09;;;17.88;100.00
55301;BME280;58302;51.446;-2.000;2023-07-24T12:51:59;98313.97;;;17.58;100.00
55301;BME280;58302;51.446;-2.000;2023-07-24T12:54:25;98254.94;;;17.29;100.00
55301;BME280;58302;51.446;-2.000;2023-07-24T12:56:51;98195.97;;;17.00;100.00
55301;BME280;58302;51.446;-2.000;2023-07-24T12:59:17;98159.31;;;16.89;100.00
55301;BME280;58302;51.446;-2.000;2023-07-24T13:01:43;98109.03;;;17.04;100.00
55301;BME280;58302;51.446;-2.000;2023-07-24T13:04:09;98108.66;;;17.29;100.00
55301;BME280;58302;51.446;-2.000;2023-07-24T13:06:35;98130.56;;;17.48;100.00
55301;BME280;58302;51.446;-2.000;2023-07-24T13:09:00;98159.66;;;17.53;100.00
55301;BME280;58302;51.446;-2.000;2023-07-24T13:11:31;98149.34;;;17.46;100.00
55301;BME280;58302;51.446;-2.000;2023-07-24T13:13:57;98123.38;;;17.67;100.00
55301;BME280;58302;51.446;-2.000;2023-07-24T13:16:23;98149.25;;;17.65;100.00
55301;BME280;58302;51.446;-2.000;2023-07-24T13:18:49;98194.41;;;17.42;100.00
55301;BME280;58302;51.446;-2.000;2023-07-24T13:21:15;98213.63;;;17.42;100.00
55301;BME280;58302;51.446;-2.000;2023-07-24T13:23:41;98198.53;;;17.55;100.00
55301;BME280;58302;51.446;-2.000;2023-07-24T13:26:06;98210.72;;;17.57;100.00
55301;BME280;58302;51.446;-2.000;2023-07-24T13:28:36;98194.63;;;17.56;100.00
55301;BME280;58302;51.446;-2.000;2023-07-24T13:31:12;98249.47;;;17.52;100.00
55301;BME280;58302;51.446;-2.000;2023-07-24T13:33:38;98251.72;;;17.89;100.00
55301;BME280;58302;51.446;-2.000;2023-07-24T13:36:04;98312.06;;;18.05;100.00
55301;BME280;58302;51.446;-2.000;2023-07-24T13:38:29;98359.34;;;18.14;100.00
55301;BME280;58302;51.446;-2.000;2023-07-24T13:40:55;98354.75;;;18.22;100.00
55301;BME280;58302;51.446;-2.000;2023-07-24T13:43:21;98389.41;;;18.26;100.00
55301;BME280;58302;51.446;-2.000;2023-07-24T13:45:47;98448.06;;;17.92;100.00
55301;BME280;58302;51.446;-2.000;2023-07-24T13:48:13;98438.63;;;17.34;100.00
55301;BME280;58302;51.446;-2.000;2023-07-24T13:50:38;98397.91;;;17.01;100.00
55301;BME280;58302;51.446;-2.000;2023-07-24T13:53:04;98334.59;;;16.75;100.00
55301;BME280;58302;51.446;-2.000;2023-07-24T13:55:30;98281.50;;;16.67;100.00
55301;BME280;58302;51.446;-2.000;2023-07-24T13:57:57;98280.56;;;16.59;100.00
55301;BME280;58302;51.446;-2.000;2023-07-24T14:00:23;98251.09;;;16.56;100.00
55301;BME280;58302;51.446;-2.000;2023-07-24T14:02:49;98226.97;;;16.46;100.00
55301;BME280;58302;51.446;-2.000;2023-07-24T14:05:15;98206.75;;;16.35;100.00
55301;BME280;58302;51.446;-2.000;2023-07-24T14:07:41;98158.72;;;16.22;100.00
55301;BME280;58302;51.446;-2.000;2023-07-24T14:10:09;98068.47;;;15.94;100.00
55301;BME280;58302;51.446;-2.000;2023-07-24T14:12:38;97978.38;;;15.53;100.00
55301;BME280;58302;51.446;-2.000;2023-07-24T14:15:03;97851.81;;;15.21;100.00
55301;BME280;58302;51.446;-2.000;2023-07-24T14:17:32;97740.75;;;14.97;100.00
55301;BME280;58302;51.446;-2.000;2023-07-24T14:20:02;97615.72;;;14.98;100.00
55301;BME280;58302;51.446;-2.000;2023-07-24T14:25:39;97551.19;;;15.43;100.00
55301;BME280;58302;51.446;-2.000;2023-07-24T14:28:05;97606.72;;;15.66;100.00
55301;BME280;58302;51.446;-2.000;2023-07-24T14:30:31;97706.91;;;15.94;100.00
55301;BME280;58302;51.446;-2.000;2023-07-24T14:32:57;97816.31;;;16.32;100.00
55301;BME280;58302;51.446;-2.000;2023-07-24T14:35:22;97909.81;;;16.50;100.00
55301;BME280;58302;51.446;-2.000;2023-07-24T14:37:48;98000.88;;;16.63;100.00
55301;BME280;58302;51.446;-2.000;2023-07-24T14:40:14;98031.56;;;16.92;100.00
55301;BME280;58302;51.446;-2.000;2023-07-24T14:42:43;98093.72;;;17.26;100.00
55301;BME280;58302;51.446;-2.000;2023-07-24T14:45:08;98176.31;;;17.41;100.00
55301;BME280;58302;51.446;-2.000;2023-07-24T14:47:34;98240.28;;;17.64;100.00
55301;BME280;58302;51.446;-2.000;2023-07-24T14:50:00;98312.50;;;17.64;100.00
55301;BME280;58302;51.446;-2.000;2023-07-24T14:52:26;98346.94;;;17.20;100.00
55301;BME280;58302;51.446;-2.000;2023-07-24T14:54:51;98318.97;;;17.33;100.00
55301;BME280;58302;51.446;-2.000;2023-07-24T14:57:17;98293.38;;;17.49;100.00
55301;BME280;58302;51.446;-2.000;2023-07-24T14:59:43;98302.81;;;17.51;100.00
55301;BME280;58302;51.446;-2.000;2023-07-24T15:02:09;98277.81;;;17.56;100.00
55301;BME280;58302;51.446;-2.000;2023-07-24T15:04:34;98252.09;;;17.45;100.00
55301;BME280;58302;51.446;-2.000;2023-07-24T15:07:00;98232.66;;;17.54;100.00
55301;BME280;58302;51.446;-2.000;2023-07-24T15:09:26;98221.00;;;17.60;100.00
55301;BME280;58302;51.446;-2.000;2023-07-24T15:11:52;98222.28;;;17.24;100.00
55301;BME280;58302;51.446;-2.000;2023-07-24T15:14:17;98200.19;;;16.94;100.00
55301;BME280;58302;51.446;-2.000;2023-07-24T15:16:43;98162.72;;;16.82;100.00
55301;BME280;58302;51.446;-2.000;2023-07-24T15:19:10;98120.63;;;16.75;100.00
55301;BME280;58302;51.446;-2.000;2023-07-24T15:21:36;98111.31;;;16.79;100.00
55301;BME280;58302;51.446;-2.000;2023-07-24T15:24:02;98149.22;;;16.54;100.00